sensor_id;sensor_type;location;lat;lon;timestamp;P1;durP1;ratioP1;P2;durP2;ratioP2
20124;SDS011;10223;50.862;4.360;2023-09-30T00:01:40;15.43;;;8.77;;
20124;SDS011;10223;50.862;4.360;2023-09-30T00:04:06;17.23;;;9.03;;
20124;SDS011;10223;50.862;4.360;2023-09-30T00:06:34;14.47;;;8.87;;
20124;SDS011;10223;50.862;4.360;2023-09-30T00:09:02;17.27;;;9.37;;
20124;SDS011;10223;50.862;4.360;2023-09-30T00:11:30;15.50;;;9.20;;
20124;SDS011;10223;50.862;4.360;2023-09-30T00:13:57;12.50;;;8.50;;
20124;SDS011;10223;50.862;4.360;2023-09-30T00:16:23;15.60;;;8.93;;
20124;SDS011;10223;50.862;4.360;2023-09-30T00:18:50;17.50;;;9.20;;
20124;SDS011;10223;50.862;4.360;2023-09-30T00:21:18;15.37;;;8.93;;
20124;SDS011;10223;50.862;4.360;2023-09-30T00:23:45;15.40;;;8.73;;
20124;SDS011;10223;50.862;4.360;2023-09-30T00:26:13;16.27;;;9.80;;
20124;SDS011;10223;50.862;4.360;2023-09-30T00:28:40;16.23;;;8.57;;
20124;SDS011;10223;50.862;4.360;2023-09-30T00:31:07;14.63;;;8.63;;
20124;SDS011;10223;50.862;4.360;2023-09-30T00:33:35;13.67;;;8.73;;
20124;SDS011;10223;50.862;4.360;2023-09-30T00:36:05;15.40;;;8.63;;
20124;SDS011;10223;50.862;4.360;2023-09-30T00:38:33;16.00;;;8.47;;
20124;SDS011;10223;50.862;4.360;2023-09-30T00:40:59;15.30;;;8.23;;
20124;SDS011;10223;50.862;4.360;2023-09-30T00:43:27;14.43;;;8.57;;
20124;SDS011;10223;50.862;4.360;2023-09-30T00:45:59;16.87;;;8.80;;
20124;SDS011;10223;50.862;4.360;2023-09-30T00:48:32;17.13;;;9.07;;
20124;SDS011;10223;50.862;4.360;2023-09-30T00:50:59;27.17;;;10.10;;
20124;SDS011;10223;50.862;4.360;2023-09-30T00:53:27;15.87;;;8.23;;
20124;SDS011;10223;50.862;4.360;2023-09-30T00:55:54;20.63;;;9.13;;
20124;SDS011;10223;50.862;4.360;2023-09-30T00:58:22;15.10;;;8.40;;
20124;SDS011;10223;50.862;4.360;2023-09-30T01:00:56;16.50;;;7.73;;
20124;SDS011;10223;50.862;4.360;2023-09-30T01:03:23;18.97;;;8.17;;
20124;SDS011;10223;50.862;4.360;2023-09-30T01:05:50;15.57;;;7.90;;
20124;SDS011;10223;50.862;4.360;2023-09-30T01:08:17;17.90;;;8.33;;
20124;SDS011;10223;50.862;4.360;2023-09-30T01:10:44;14.43;;;7.93;;
20124;SDS011;10223;50.862;4.360;2023-09-30T01:13:12;22.60;;;7.70;;
20124;SDS011;10223;50.862;4.360;2023-09-30T01:15:38;16.13;;;8.03;;
20124;SDS011;10223;50.862;4.360;2023-09-30T01:18:06;18.23;;;7.50;;
20124;SDS011;10223;50.862;4.360;2023-09-30T01:20:33;22.73;;;7.20;;
20124;SDS011;10223;50.862;4.360;2023-09-30T01:23:02;17.63;;;6.93;;
20124;SDS011;10223;50.862;4.360;2023-09-30T01:25:29;17.70;;;7.83;;
20124;SDS011;10223;50.862;4.360;2023-09-30T01:27:58;13.13;;;7.33;;
20124;SDS011;10223;50.862;4.360;2023-09-30T01:30:31;17.30;;;7.20;;
20124;SDS011;10223;50.862;4.360;2023-09-30T01:32:58;17.70;;;7.00;;
20124;SDS011;10223;50.862;4.360;2023-09-30T01:35:25;17.80;;;7.57;;
20124;SDS011;10223;50.862;4.360;2023-09-30T01:37:52;18.97;;;7.53;;
20124;SDS011;10223;50.862;4.360;2023-09-30T01:40:19;18.13;;;7.80;;
20124;SDS011;10223;50.862;4.360;2023-09-30T01:42:46;14.50;;;7.47;;
20124;SDS011;10223;50.862;4.360;2023-09-30T01:45:13;17.80;;;7.87;;
20124;SDS011;10223;50.862;4.360;2023-09-30T01:47:40;17.67;;;8.27;;
20124;SDS011;10223;50.862;4.360;2023-09-30T01:50:07;18.60;;;8.30;;
20124;SDS011;10223;50.862;4.360;2023-09-30T01:52:34;16.27;;;7.60;;
20124;SDS011;10223;50.862;4.360;2023-09-30T01:55:01;21.03;;;8.57;;
20124;SDS011;10223;50.862;4.360;2023-09-30T01:57:29;15.43;;;8.07;;
20124;SDS011;10223;50.862;4.360;2023-09-30T01:59:56;14.47;;;7.87;;
20124;SDS011;10223;50.862;4.360;2023-09-30T02:02:23;23.13;;;8.40;;
20124;SDS011;10223;50.862;4.360;2023-09-30T02:04:51;21.13;;;7.97;;
20124;SDS011;10223;50.862;4.360;2023-09-30T02:07:18;14.17;;;7.97;;
20124;SDS011;10223;50.862;4.360;2023-09-30T02:09:45;18.93;;;8.00;;
20124;SDS011;10223;50.862;4.360;2023-09-30T02:12:12;15.57;;;8.67;;
20124;SDS011;10223;50.862;4.360;2023-09-30T02:14:40;20.27;;;8.30;;
20124;SDS011;10223;50.862;4.360;2023-09-30T02:17:08;15.50;;;8.27;;
20124;SDS011;10223;50.862;4.360;2023-09-30T02:19:36;16.50;;;8.63;;
20124;SDS011;10223;50.862;4.360;2023-09-30T02:22:03;24.33;;;8.40;;
20124;SDS011;10223;50.862;4.360;2023-09-30T02:24:30;19.20;;;8.40;;
20124;SDS011;10223;50.862;4.360;2023-09-30T02:26:56;18.93;;;7.53;;
20124;SDS011;10223;50.862;4.360;2023-09-30T02:29:23;16.33;;;7.47;;
20124;SDS011;10223;50.862;4.360;2023-09-30T02:31:52;19.60;;;8.83;;
20124;SDS011;10223;50.862;4.360;2023-09-30T02:34:20;22.07;;;8.27;;
20124;SDS011;10223;50.862;4.360;2023-09-30T02:36:47;17.43;;;7.73;;
20124;SDS011;10223;50.862;4.360;2023-09-30T02:39:14;27.60;;;7.70;;
20124;SDS011;10223;50.862;4.360;2023-09-30T02:41:43;17.67;;;7.40;;
20124;SDS011;10223;50.862;4.360;2023-09-30T02:44:09;14.43;;;7.00;;
20124;SDS011;10223;50.862;4.360;2023-09-30T02:46:37;19.67;;;8.30;;
20124;SDS011;10223;50.862;4.360;2023-09-30T02:49:05;20.37;;;7.73;;
20124;SDS011;10223;50.862;4.360;2023-09-30T02:51:33;20.83;;;8.93;;
20124;SDS011;10223;50.862;4.360;2023-09-30T02:54:00;22.77;;;10.03;;
20124;SDS011;10223;50.862;4.360;2023-09-30T02:56:26;21.13;;;9.30;;
20124;SDS011;10223;50.862;4.360;2023-09-30T02:58:55;19.30;;;9.93;;
20124;SDS011;10223;50.862;4.360;2023-09-30T03:01:22;25.03;;;9.83;;
20124;SDS011;10223;50.862;4.360;2023-09-30T03:03:49;22.50;;;8.90;;
20124;SDS011;10223;50.862;4.360;2023-09-30T03:06:17;23.67;;;9.73;;
20124;SDS011;10223;50.862;4.360;2023-09-30T03:08:44;22.97;;;9.27;;
20124;SDS011;10223;50.862;4.360;2023-09-30T03:11:11;22.80;;;9.97;;
20124;SDS011;10223;50.862;4.360;2023-09-30T03:13:38;21.70;;;9.03;;
20124;SDS011;10223;50.862;4.360;2023-09-30T03:16:07;20.37;;;9.27;;
20124;SDS011;10223;50.862;4.360;2023-09-30T03:18:34;23.27;;;9.70;;
20124;SDS011;10223;50.862;4.360;2023-09-30T03:21:01;19.90;;;9.43;;
20124;SDS011;10223;50.862;4.360;2023-09-30T03:23:35;23.50;;;9.60;;
20124;SDS011;10223;50.862;4.360;2023-09-30T03:26:03;25.80;;;10.30;;
20124;SDS011;10223;50.862;4.360;2023-09-30T03:28:35;20.70;;;10.20;;
20124;SDS011;10223;50.862;4.360;2023-09-30T03:31:01;25.23;;;10.23;;
20124;SDS011;10223;50.862;4.360;2023-09-30T03:33:29;19.30;;;9.87;;
20124;SDS011;10223;50.862;4.360;2023-09-30T03:35:56;27.43;;;10.60;;
20124;SDS011;10223;50.862;4.360;2023-09-30T03:38:25;25.03;;;9.90;;
20124;SDS011;10223;50.862;4.360;2023-09-30T03:40:53;22.97;;;9.87;;
20124;SDS011;10223;50.862;4.360;2023-09-30T03:43:20;23.77;;;9.80;;
20124;SDS011;10223;50.862;4.360;2023-09-30T03:45:48;25.37;;;10.43;;
20124;SDS011;10223;50.862;4.360;2023-09-30T03:48:15;31.77;;;10.70;;
20124;SDS011;10223;50.862;4.360;2023-09-30T03:50:44;30.93;;;10.60;;
20124;SDS011;10223;50.862;4.360;2023-09-30T03:53:10;28.70;;;9.63;;
20124;SDS011;10223;50.862;4.360;2023-09-30T03:55:37;22.70;;;9.63;;
20124;SDS011;10223;50.862;4.360;2023-09-30T03:58:06;21.53;;;10.13;;
20124;SDS011;10223;50.862;4.360;2023-09-30T04:00:32;32.00;;;10.30;;
20124;SDS011;10223;50.862;4.360;2023-09-30T04:03:00;21.13;;;9.67;;
20124;SDS011;10223;50.862;4.360;2023-09-30T04:05:27;23.67;;;9.57;;
20124;SDS011;10223;50.862;4.360;2023-09-30T04:07:57;26.17;;;9.97;;
20124;SDS011;10223;50.862;4.360;2023-09-30T04:10:24;25.60;;;11.00;;
20124;SDS011;10223;50.862;4.360;2023-09-30T04:12:50;26.60;;;10.43;;
20124;SDS011;10223;50.862;4.360;2023-09-30T04:15:19;32.70;;;10.60;;
20124;SDS011;10223;50.862;4.360;2023-09-30T04:17:47;24.70;;;9.90;;
20124;SDS011;10223;50.862;4.360;2023-09-30T04:20:14;21.23;;;10.03;;
20124;SDS011;10223;50.862;4.360;2023-09-30T04:22:45;29.67;;;10.13;;
20124;SDS011;10223;50.862;4.360;2023-09-30T04:25:13;28.30;;;10.00;;
20124;SDS011;10223;50.862;4.360;2023-09-30T04:27:41;23.60;;;10.13;;
20124;SDS011;10223;50.862;4.360;2023-09-30T04:30:09;19.13;;;9.27;;
20124;SDS011;10223;50.862;4.360;2023-09-30T04:32:38;24.43;;;9.80;;
20124;SDS011;10223;50.862;4.360;2023-09-30T04:35:05;32.57;;;10.20;;
20124;SDS011;10223;50.862;4.360;2023-09-30T04:37:33;24.47;;;9.53;;
20124;SDS011;10223;50.862;4.360;2023-09-30T04:40:01;29.00;;;10.53;;
20124;SDS011;10223;50.862;4.360;2023-09-30T04:42:32;19.80;;;9.83;;
20124;SDS011;10223;50.862;4.360;2023-09-30T04:45:01;32.77;;;9.30;;
20124;SDS011;10223;50.862;4.360;2023-09-30T04:47:30;28.77;;;10.07;;
20124;SDS011;10223;50.862;4.360;2023-09-30T04:49:58;26.53;;;9.57;;
20124;SDS011;10223;50.862;4.360;2023-09-30T04:52:29;24.17;;;8.10;;
20124;SDS011;10223;50.862;4.360;2023-09-30T04:54:56;23.83;;;9.40;;
20124;SDS011;10223;50.862;4.360;2023-09-30T04:57:23;26.47;;;8.30;;
20124;SDS011;10223;50.862;4.360;2023-09-30T04:59:50;27.37;;;9.50;;
20124;SDS011;10223;50.862;4.360;2023-09-30T05:02:17;20.63;;;8.70;;
20124;SDS011;10223;50.862;4.360;2023-09-30T05:04:43;24.40;;;9.17;;
20124;SDS011;10223;50.862;4.360;2023-09-30T05:07:12;23.03;;;8.27;;
20124;SDS011;10223;50.862;4.360;2023-09-30T05:09:38;26.20;;;9.30;;
20124;SDS011;10223;50.862;4.360;2023-09-30T05:12:06;30.87;;;9.87;;
20124;SDS011;10223;50.862;4.360;2023-09-30T05:14:33;27.77;;;9.53;;
20124;SDS011;10223;50.862;4.360;2023-09-30T05:17:01;34.57;;;9.90;;
20124;SDS011;10223;50.862;4.360;2023-09-30T05:19:29;27.50;;;9.60;;
20124;SDS011;10223;50.862;4.360;2023-09-30T05:21:57;19.77;;;7.77;;
20124;SDS011;10223;50.862;4.360;2023-09-30T05:24:27;27.50;;;9.67;;
20124;SDS011;10223;50.862;4.360;2023-09-30T05:26:54;25.60;;;8.07;;
20124;SDS011;10223;50.862;4.360;2023-09-30T05:29:21;29.27;;;8.80;;
20124;SDS011;10223;50.862;4.360;2023-09-30T05:31:48;26.10;;;9.20;;
20124;SDS011;10223;50.862;4.360;2023-09-30T05:34:14;26.77;;;8.70;;
20124;SDS011;10223;50.862;4.360;2023-09-30T05:36:42;25.00;;;8.13;;
20124;SDS011;10223;50.862;4.360;2023-09-30T05:39:09;24.00;;;7.87;;
20124;SDS011;10223;50.862;4.360;2023-09-30T05:41:38;31.97;;;8.73;;
20124;SDS011;10223;50.862;4.360;2023-09-30T05:44:05;34.20;;;9.10;;
20124;SDS011;10223;50.862;4.360;2023-09-30T05:46:33;26.87;;;9.20;;
20124;SDS011;10223;50.862;4.360;2023-09-30T05:48:59;31.57;;;8.93;;
20124;SDS011;10223;50.862;4.360;2023-09-30T05:51:26;25.30;;;8.17;;
20124;SDS011;10223;50.862;4.360;2023-09-30T05:53:53;28.03;;;8.50;;
20124;SDS011;10223;50.862;4.360;2023-09-30T05:56:20;24.50;;;8.23;;
20124;SDS011;10223;50.862;4.360;2023-09-30T05:58:48;21.60;;;7.63;;
20124;SDS011;10223;50.862;4.360;2023-09-30T06:01:14;27.63;;;8.50;;
20124;SDS011;10223;50.862;4.360;2023-09-30T06:03:44;30.87;;;9.80;;
20124;SDS011;10223;50.862;4.360;2023-09-30T06:06:12;24.90;;;8.20;;
20124;SDS011;10223;50.862;4.360;2023-09-30T06:08:41;22.20;;;8.47;;
20124;SDS011;10223;50.862;4.360;2023-09-30T06:11:15;18.63;;;7.33;;
20124;SDS011;10223;50.862;4.360;2023-09-30T06:13:43;21.43;;;7.23;;
20124;SDS011;10223;50.862;4.360;2023-09-30T06:16:12;22.57;;;7.57;;
20124;SDS011;10223;50.862;4.360;2023-09-30T06:18:38;24.13;;;7.73;;
20124;SDS011;10223;50.862;4.360;2023-09-30T06:21:05;24.07;;;7.80;;
20124;SDS011;10223;50.862;4.360;2023-09-30T06:23:32;24.40;;;7.60;;
20124;SDS011;10223;50.862;4.360;2023-09-30T06:25:59;28.00;;;7.27;;
20124;SDS011;10223;50.862;4.360;2023-09-30T06:28:27;22.80;;;7.50;;
20124;SDS011;10223;50.862;4.360;2023-09-30T06:30:56;23.93;;;7.97;;
20124;SDS011;10223;50.862;4.360;2023-09-30T06:33:24;21.63;;;7.77;;
20124;SDS011;10223;50.862;4.360;2023-09-30T06:35:54;28.33;;;7.90;;
20124;SDS011;10223;50.862;4.360;2023-09-30T06:38:21;18.90;;;7.40;;
20124;SDS011;10223;50.862;4.360;2023-09-30T06:40:48;27.40;;;7.60;;
20124;SDS011;10223;50.862;4.360;2023-09-30T06:43:14;18.50;;;6.83;;
20124;SDS011;10223;50.862;4.360;2023-09-30T06:45:41;19.43;;;6.63;;
20124;SDS011;10223;50.862;4.360;2023-09-30T06:48:08;21.03;;;6.93;;
20124;SDS011;10223;50.862;4.360;2023-09-30T06:50:39;22.23;;;6.47;;
20124;SDS011;10223;50.862;4.360;2023-09-30T06:53:09;28.10;;;6.87;;
20124;SDS011;10223;50.862;4.360;2023-09-30T06:55:36;19.43;;;6.27;;
20124;SDS011;10223;50.862;4.360;2023-09-30T06:58:04;27.23;;;6.63;;
20124;SDS011;10223;50.862;4.360;2023-09-30T07:00:32;16.17;;;7.07;;
20124;SDS011;10223;50.862;4.360;2023-09-30T07:03:00;23.80;;;6.57;;
20124;SDS011;10223;50.862;4.360;2023-09-30T07:05:27;20.80;;;6.13;;
20124;SDS011;10223;50.862;4.360;2023-09-30T07:07:55;23.23;;;6.20;;
20124;SDS011;10223;50.862;4.360;2023-09-30T07:10:23;19.10;;;6.33;;
20124;SDS011;10223;50.862;4.360;2023-09-30T07:12:50;21.23;;;6.80;;
20124;SDS011;10223;50.862;4.360;2023-09-30T07:15:17;21.37;;;7.23;;
20124;SDS011;10223;50.862;4.360;2023-09-30T07:17:44;23.97;;;6.07;;
20124;SDS011;10223;50.862;4.360;2023-09-30T07:20:12;19.27;;;5.80;;
20124;SDS011;10223;50.862;4.360;2023-09-30T07:22:40;25.80;;;6.83;;
20124;SDS011;10223;50.862;4.360;2023-09-30T07:25:08;17.57;;;6.33;;
20124;SDS011;10223;50.862;4.360;2023-09-30T07:27:35;18.87;;;6.17;;
20124;SDS011;10223;50.862;4.360;2023-09-30T07:30:02;20.40;;;5.87;;
20124;SDS011;10223;50.862;4.360;2023-09-30T07:32:31;19.30;;;4.97;;
20124;SDS011;10223;50.862;4.360;2023-09-30T07:34:58;18.23;;;5.93;;
20124;SDS011;10223;50.862;4.360;2023-09-30T07:37:25;19.33;;;5.50;;
20124;SDS011;10223;50.862;4.360;2023-09-30T07:39:52;25.07;;;7.03;;
20124;SDS011;10223;50.862;4.360;2023-09-30T07:42:20;20.60;;;5.57;;
20124;SDS011;10223;50.862;4.360;2023-09-30T07:44:48;20.07;;;5.93;;
20124;SDS011;10223;50.862;4.360;2023-09-30T07:47:14;14.87;;;5.00;;
20124;SDS011;10223;50.862;4.360;2023-09-30T07:49:40;18.70;;;5.57;;
20124;SDS011;10223;50.862;4.360;2023-09-30T07:52:07;18.15;;;5.25;;
20124;SDS011;10223;50.862;4.360;2023-09-30T07:54:35;21.63;;;6.25;;
20124;SDS011;10223;50.862;4.360;2023-09-30T07:57:02;21.42;;;5.57;;
20124;SDS011;10223;50.862;4.360;2023-09-30T07:59:30;22.33;;;6.50;;
20124;SDS011;10223;50.862;4.360;2023-09-30T08:01:58;22.15;;;5.05;;
20124;SDS011;10223;50.862;4.360;2023-09-30T08:04:25;18.33;;;5.70;;
20124;SDS011;10223;50.862;4.360;2023-09-30T08:06:51;27.77;;;5.82;;
20124;SDS011;10223;50.862;4.360;2023-09-30T08:09:19;20.70;;;5.57;;
20124;SDS011;10223;50.862;4.360;2023-09-30T08:11:47;22.20;;;6.70;;
20124;SDS011;10223;50.862;4.360;2023-09-30T08:14:15;21.63;;;6.05;;
20124;SDS011;10223;50.862;4.360;2023-09-30T08:16:43;19.52;;;6.40;;
20124;SDS011;10223;50.862;4.360;2023-09-30T08:19:10;17.35;;;5.32;;
20124;SDS011;10223;50.862;4.360;2023-09-30T08:21:37;20.92;;;5.68;;
20124;SDS011;10223;50.862;4.360;2023-09-30T08:24:04;14.80;;;5.70;;
20124;SDS011;10223;50.862;4.360;2023-09-30T08:26:31;22.58;;;6.45;;
20124;SDS011;10223;50.862;4.360;2023-09-30T08:28:58;20.95;;;5.68;;
20124;SDS011;10223;50.862;4.360;2023-09-30T08:31:25;17.45;;;5.00;;
20124;SDS011;10223;50.862;4.360;2023-09-30T08:33:53;16.65;;;6.15;;
20124;SDS011;10223;50.862;4.360;2023-09-30T08:36:20;25.08;;;6.32;;
20124;SDS011;10223;50.862;4.360;2023-09-30T08:38:46;24.48;;;6.20;;
20124;SDS011;10223;50.862;4.360;2023-09-30T08:41:15;19.30;;;6.35;;
20124;SDS011;10223;50.862;4.360;2023-09-30T08:43:55;20.20;;;5.68;;
20124;SDS011;10223;50.862;4.360;2023-09-30T08:46:27;20.70;;;6.88;;
20124;SDS011;10223;50.862;4.360;2023-09-30T08:48:58;21.77;;;5.88;;
20124;SDS011;10223;50.862;4.360;2023-09-30T08:51:28;21.95;;;6.40;;
20124;SDS011;10223;50.862;4.360;2023-09-30T08:53:56;23.40;;;7.63;;
20124;SDS011;10223;50.862;4.360;2023-09-30T08:56:24;20.02;;;6.35;;
20124;SDS011;10223;50.862;4.360;2023-09-30T08:58:53;16.67;;;5.97;;
20124;SDS011;10223;50.862;4.360;2023-09-30T09:01:22;25.63;;;6.60;;
20124;SDS011;10223;50.862;4.360;2023-09-30T09:03:50;17.02;;;5.90;;
20124;SDS011;10223;50.862;4.360;2023-09-30T09:06:19;23.00;;;6.20;;
20124;SDS011;10223;50.862;4.360;2023-09-30T09:08:47;19.38;;;6.53;;
20124;SDS011;10223;50.862;4.360;2023-09-30T09:11:14;20.95;;;5.30;;
20124;SDS011;10223;50.862;4.360;2023-09-30T09:13:45;16.63;;;5.10;;
20124;SDS011;10223;50.862;4.360;2023-09-30T09:16:15;18.85;;;5.38;;
20124;SDS011;10223;50.862;4.360;2023-09-30T09:18:43;17.90;;;5.93;;
20124;SDS011;10223;50.862;4.360;2023-09-30T09:21:12;21.33;;;7.40;;
20124;SDS011;10223;50.862;4.360;2023-09-30T09:23:43;22.90;;;5.53;;
20124;SDS011;10223;50.862;4.360;2023-09-30T09:26:11;18.48;;;5.22;;
20124;SDS011;10223;50.862;4.360;2023-09-30T09:28:39;12.43;;;4.93;;
20124;SDS011;10223;50.862;4.360;2023-09-30T09:31:20;16.85;;;4.53;;
20124;SDS011;10223;50.862;4.360;2023-09-30T09:33:48;15.25;;;4.80;;
20124;SDS011;10223;50.862;4.360;2023-09-30T09:36:16;19.80;;;5.03;;
20124;SDS011;10223;50.862;4.360;2023-09-30T09:38:46;18.55;;;5.20;;
20124;SDS011;10223;50.862;4.360;2023-09-30T09:41:15;18.40;;;4.80;;
20124;SDS011;10223;50.862;4.360;2023-09-30T09:43:42;19.27;;;4.78;;
20124;SDS011;10223;50.862;4.360;2023-09-30T09:46:09;16.73;;;5.70;;
20124;SDS011;10223;50.862;4.360;2023-09-30T09:48:37;19.20;;;4.82;;
20124;SDS011;10223;50.862;4.360;2023-09-30T09:51:04;23.88;;;6.45;;
20124;SDS011;10223;50.862;4.360;2023-09-30T09:53:34;15.00;;;4.20;;
20124;SDS011;10223;50.862;4.360;2023-09-30T09:56:03;15.27;;;4.18;;
20124;SDS011;10223;50.862;4.360;2023-09-30T09:58:32;14.85;;;4.38;;
20124;SDS011;10223;50.862;4.360;2023-09-30T10:01:00;18.40;;;4.22;;
20124;SDS011;10223;50.862;4.360;2023-09-30T10:03:28;16.48;;;4.55;;
20124;SDS011;10223;50.862;4.360;2023-09-30T10:05:55;9.70;;;3.58;;
20124;SDS011;10223;50.862;4.360;2023-09-30T10:08:27;14.57;;;3.88;;
20124;SDS011;10223;50.862;4.360;2023-09-30T10:10:57;14.88;;;3.15;;
20124;SDS011;10223;50.862;4.360;2023-09-30T10:19:14;12.20;;;3.25;;
20124;SDS011;10223;50.862;4.360;2023-09-30T10:24:44;15.00;;;3.65;;
20124;SDS011;10223;50.862;4.360;2023-09-30T10:27:27;12.52;;;3.55;;
20124;SDS011;10223;50.862;4.360;2023-09-30T10:30:05;13.30;;;4.15;;
20124;SDS011;10223;50.862;4.360;2023-09-30T10:35:43;9.18;;;3.50;;
20124;SDS011;10223;50.862;4.360;2023-09-30T10:41:05;14.90;;;3.75;;
20124;SDS011;10223;50.862;4.360;2023-09-30T10:43:33;13.38;;;3.47;;
20124;SDS011;10223;50.862;4.360;2023-09-30T10:46:03;12.77;;;3.35;;
20124;SDS011;10223;50.862;4.360;2023-09-30T10:48:35;14.35;;;3.40;;
20124;SDS011;10223;50.862;4.360;2023-09-30T10:51:16;15.48;;;4.05;;
20124;SDS011;10223;50.862;4.360;2023-09-30T10:53:49;13.57;;;3.22;;
20124;SDS011;10223;50.862;4.360;2023-09-30T10:56:18;12.52;;;3.30;;
20124;SDS011;10223;50.862;4.360;2023-09-30T10:58:45;11.23;;;2.70;;
20124;SDS011;10223;50.862;4.360;2023-09-30T11:01:16;11.70;;;3.13;;
20124;SDS011;10223;50.862;4.360;2023-09-30T11:03:44;7.88;;;3.03;;
20124;SDS011;10223;50.862;4.360;2023-09-30T11:06:12;15.05;;;2.90;;
20124;SDS011;10223;50.862;4.360;2023-09-30T11:08:44;14.30;;;3.83;;
20124;SDS011;10223;50.862;4.360;2023-09-30T11:11:12;13.52;;;3.33;;
20124;SDS011;10223;50.862;4.360;2023-09-30T11:13:39;12.80;;;3.47;;
20124;SDS011;10223;50.862;4.360;2023-09-30T11:16:06;8.55;;;2.85;;
20124;SDS011;10223;50.862;4.360;2023-09-30T11:18:36;9.75;;;2.72;;
20124;SDS011;10223;50.862;4.360;2023-09-30T11:21:04;9.43;;;2.78;;
20124;SDS011;10223;50.862;4.360;2023-09-30T11:23:33;15.75;;;3.60;;
20124;SDS011;10223;50.862;4.360;2023-09-30T11:26:00;11.52;;;3.58;;
20124;SDS011;10223;50.862;4.360;2023-09-30T11:28:35;12.82;;;4.03;;
20124;SDS011;10223;50.862;4.360;2023-09-30T11:31:06;12.38;;;5.03;;
20124;SDS011;10223;50.862;4.360;2023-09-30T11:33:48;14.25;;;3.58;;
20124;SDS011;10223;50.862;4.360;2023-09-30T11:36:17;11.10;;;2.80;;
20124;SDS011;10223;50.862;4.360;2023-09-30T11:38:44;10.32;;;3.42;;
20124;SDS011;10223;50.862;4.360;2023-09-30T11:41:12;15.40;;;3.55;;
20124;SDS011;10223;50.862;4.360;2023-09-30T11:43:41;11.57;;;3.50;;
20124;SDS011;10223;50.862;4.360;2023-09-30T11:46:25;15.13;;;3.50;;
20124;SDS011;10223;50.862;4.360;2023-09-30T11:48:57;15.30;;;3.30;;
20124;SDS011;10223;50.862;4.360;2023-09-30T11:51:25;12.68;;;3.05;;
20124;SDS011;10223;50.862;4.360;2023-09-30T11:53:52;12.88;;;3.28;;
20124;SDS011;10223;50.862;4.360;2023-09-30T11:56:21;14.45;;;4.05;;
20124;SDS011;10223;50.862;4.360;2023-09-30T11:58:52;8.00;;;2.80;;
20124;SDS011;10223;50.862;4.360;2023-09-30T12:01:19;8.82;;;2.85;;
20124;SDS011;10223;50.862;4.360;2023-09-30T12:03:47;9.05;;;3.05;;
20124;SDS011;10223;50.862;4.360;2023-09-30T12:06:15;16.27;;;3.75;;
20124;SDS011;10223;50.862;4.360;2023-09-30T12:08:42;10.20;;;3.60;;
20124;SDS011;10223;50.862;4.360;2023-09-30T12:11:10;11.73;;;3.35;;
20124;SDS011;10223;50.862;4.360;2023-09-30T12:13:38;11.13;;;4.30;;
20124;SDS011;10223;50.862;4.360;2023-09-30T12:16:05;9.50;;;3.20;;
20124;SDS011;10223;50.862;4.360;2023-09-30T12:18:32;15.75;;;3.80;;
20124;SDS011;10223;50.862;4.360;2023-09-30T12:20:58;17.73;;;4.57;;
20124;SDS011;10223;50.862;4.360;2023-09-30T12:23:27;10.55;;;2.78;;
20124;SDS011;10223;50.862;4.360;2023-09-30T12:25:53;8.95;;;2.90;;
20124;SDS011;10223;50.862;4.360;2023-09-30T12:28:20;12.18;;;4.97;;
20124;SDS011;10223;50.862;4.360;2023-09-30T12:30:47;8.55;;;3.58;;
20124;SDS011;10223;50.862;4.360;2023-09-30T12:33:14;10.02;;;3.13;;
20124;SDS011;10223;50.862;4.360;2023-09-30T12:35:41;9.68;;;3.22;;
20124;SDS011;10223;50.862;4.360;2023-09-30T12:38:08;10.70;;;2.80;;
20124;SDS011;10223;50.862;4.360;2023-09-30T12:40:37;11.00;;;3.10;;
20124;SDS011;10223;50.862;4.360;2023-09-30T12:43:04;9.30;;;3.28;;
20124;SDS011;10223;50.862;4.360;2023-09-30T12:45:31;9.90;;;3.17;;
20124;SDS011;10223;50.862;4.360;2023-09-30T12:47:58;10.02;;;2.47;;
20124;SDS011;10223;50.862;4.360;2023-09-30T12:50:25;12.80;;;2.97;;
20124;SDS011;10223;50.862;4.360;2023-09-30T12:52:52;6.57;;;2.28;;
20124;SDS011;10223;50.862;4.360;2023-09-30T12:55:19;11.88;;;2.72;;
20124;SDS011;10223;50.862;4.360;2023-09-30T12:57:47;10.77;;;3.58;;
20124;SDS011;10223;50.862;4.360;2023-09-30T13:00:14;12.88;;;3.03;;
20124;SDS011;10223;50.862;4.360;2023-09-30T13:02:44;10.45;;;3.13;;
20124;SDS011;10223;50.862;4.360;2023-09-30T13:05:11;9.45;;;2.70;;
20124;SDS011;10223;50.862;4.360;2023-09-30T13:07:38;9.43;;;2.45;;
20124;SDS011;10223;50.862;4.360;2023-09-30T13:10:05;14.45;;;3.38;;
20124;SDS011;10223;50.862;4.360;2023-09-30T13:12:33;9.48;;;3.50;;
20124;SDS011;10223;50.862;4.360;2023-09-30T13:15:01;11.65;;;3.67;;
20124;SDS011;10223;50.862;4.360;2023-09-30T13:17:29;6.40;;;2.85;;
20124;SDS011;10223;50.862;4.360;2023-09-30T13:19:56;5.80;;;2.28;;
20124;SDS011;10223;50.862;4.360;2023-09-30T13:22:24;11.82;;;2.58;;
20124;SDS011;10223;50.862;4.360;2023-09-30T13:24:51;9.35;;;2.50;;
20124;SDS011;10223;50.862;4.360;2023-09-30T13:27:18;6.68;;;2.40;;
20124;SDS011;10223;50.862;4.360;2023-09-30T13:29:46;12.07;;;3.17;;
20124;SDS011;10223;50.862;4.360;2023-09-30T13:32:14;5.55;;;2.15;;
20124;SDS011;10223;50.862;4.360;2023-09-30T13:34:43;8.05;;;2.70;;
20124;SDS011;10223;50.862;4.360;2023-09-30T13:37:10;7.70;;;2.67;;
20124;SDS011;10223;50.862;4.360;2023-09-30T13:39:37;8.13;;;2.40;;
20124;SDS011;10223;50.862;4.360;2023-09-30T13:42:04;8.40;;;2.55;;
20124;SDS011;10223;50.862;4.360;2023-09-30T13:44:32;7.50;;;2.40;;
20124;SDS011;10223;50.862;4.360;2023-09-30T13:46:59;7.40;;;2.60;;
20124;SDS011;10223;50.862;4.360;2023-09-30T13:49:27;10.65;;;6.40;;
20124;SDS011;10223;50.862;4.360;2023-09-30T13:51:55;9.05;;;2.63;;
20124;SDS011;10223;50.862;4.360;2023-09-30T13:54:22;7.72;;;2.33;;
20124;SDS011;10223;50.862;4.360;2023-09-30T13:56:48;13.45;;;8.55;;
20124;SDS011;10223;50.862;4.360;2023-09-30T13:59:15;11.20;;;3.78;;
20124;SDS011;10223;50.862;4.360;2023-09-30T14:01:42;10.50;;;3.20;;
20124;SDS011;10223;50.862;4.360;2023-09-30T14:04:09;13.73;;;6.95;;
20124;SDS011;10223;50.862;4.360;2023-09-30T14:06:37;8.63;;;2.03;;
20124;SDS011;10223;50.862;4.360;2023-09-30T14:09:05;7.03;;;2.60;;
20124;SDS011;10223;50.862;4.360;2023-09-30T14:11:37;12.38;;;2.45;;
20124;SDS011;10223;50.862;4.360;2023-09-30T14:14:04;8.23;;;2.65;;
20124;SDS011;10223;50.862;4.360;2023-09-30T14:16:31;8.75;;;2.95;;
20124;SDS011;10223;50.862;4.360;2023-09-30T14:18:57;16.27;;;6.38;;
20124;SDS011;10223;50.862;4.360;2023-09-30T14:21:25;8.77;;;3.03;;
20124;SDS011;10223;50.862;4.360;2023-09-30T14:23:54;23.25;;;10.82;;
20124;SDS011;10223;50.862;4.360;2023-09-30T14:26:21;11.88;;;3.92;;
20124;SDS011;10223;50.862;4.360;2023-09-30T14:28:48;8.80;;;2.72;;
20124;SDS011;10223;50.862;4.360;2023-09-30T14:31:15;9.70;;;4.47;;
20124;SDS011;10223;50.862;4.360;2023-09-30T14:33:42;9.40;;;4.00;;
20124;SDS011;10223;50.862;4.360;2023-09-30T14:36:09;14.68;;;5.20;;
20124;SDS011;10223;50.862;4.360;2023-09-30T14:38:36;7.40;;;2.63;;
20124;SDS011;10223;50.862;4.360;2023-09-30T14:41:07;12.52;;;3.05;;
20124;SDS011;10223;50.862;4.360;2023-09-30T14:43:35;17.33;;;7.57;;
20124;SDS011;10223;50.862;4.360;2023-09-30T14:46:02;8.13;;;4.05;;
20124;SDS011;10223;50.862;4.360;2023-09-30T14:48:29;8.65;;;3.03;;
20124;SDS011;10223;50.862;4.360;2023-09-30T14:50:56;9.73;;;2.80;;
20124;SDS011;10223;50.862;4.360;2023-09-30T14:53:23;8.65;;;2.67;;
20124;SDS011;10223;50.862;4.360;2023-09-30T14:55:50;6.32;;;2.45;;